createdAt,value
2018-09-10T00:00:22.089Z,96297.00
2018-09-10T00:00:54.214Z,96297.00
2018-09-10T00:01:26.351Z,96292.00
2018-09-10T00:01:58.434Z,96296.00
2018-09-10T00:02:30.550Z,96295.00
2018-09-10T00:03:02.662Z,96298.00
2018-09-10T00:03:35.016Z,96297.00
2018-09-10T00:04:07.238Z,96295.00
2018-09-10T00:04:39.703Z,96294.00
2018-09-10T00:05:11.857Z,96295.00
2018-09-10T00:05:44.039Z,96293.00
2018-09-10T00:06:16.134Z,96289.00
2018-09-10T00:06:48.249Z,96290.00
2018-09-10T00:07:20.471Z,96292.00
2018-09-10T00:07:52.566Z,96287.00
2018-09-10T00:08:24.782Z,96288.00
2018-09-10T00:08:56.931Z,96288.00
2018-09-10T00:09:29.049Z,96287.00
2018-09-10T00:10:01.240Z,96291.00
2018-09-10T00:10:33.336Z,96289.00
2018-09-10T00:11:05.457Z,96290.00
2018-09-10T00:11:37.569Z,96288.00
2018-09-10T00:12:09.797Z,96287.00
2018-09-10T00:12:41.950Z,96287.00
2018-09-10T00:13:14.174Z,96290.00
2018-09-10T00:13:46.257Z,96291.00
2018-09-10T00:14:18.470Z,96286.00
2018-09-10T00:14:50.711Z,96289.00
2018-09-10T00:15:22.873Z,96291.00
2018-09-10T00:15:55.049Z,96290.00
2018-09-10T00:16:27.207Z,96289.00
2018-09-10T00:16:59.321Z,96290.00
2018-09-10T00:17:31.476Z,96293.00
2018-09-10T00:18:03.684Z,96294.00
2018-09-10T00:18:35.827Z,96290.00
2018-09-10T00:19:07.902Z,96289.00
2018-09-10T00:19:40.031Z,96287.00
2018-09-10T00:20:12.125Z,96292.00
2018-09-10T00:20:44.256Z,96293.00
2018-09-10T00:21:16.359Z,96292.00
2018-09-10T00:21:48.457Z,96291.00
2018-09-10T00:22:20.710Z,96288.00
2018-09-10T00:22:52.934Z,96296.00
2018-09-10T00:23:25.062Z,96289.00
2018-09-10T00:23:57.213Z,96291.00
2018-09-10T00:24:29.338Z,96291.00
2018-09-10T00:25:01.482Z,96291.00
2018-09-10T00:25:34.012Z,96287.00
2018-09-10T00:26:06.404Z,96292.00
2018-09-10T00:26:38.831Z,96289.00
2018-09-10T00:27:11.306Z,96287.00
2018-09-10T00:27:43.545Z,96289.00
2018-09-10T00:28:15.681Z,96287.00
2018-09-10T00:28:47.956Z,96284.00
2018-09-10T00:29:20.061Z,96291.00
2018-09-10T00:29:52.164Z,96293.00
2018-09-10T00:30:24.311Z,96291.00
2018-09-10T00:30:56.440Z,96288.00
2018-09-10T00:31:28.724Z,96287.00
2018-09-10T00:32:00.853Z,96287.00
2018-09-10T00:32:33.014Z,96291.00
2018-09-10T00:33:05.266Z,96287.00
2018-09-10T00:33:37.434Z,96291.00
2018-09-10T00:34:09.562Z,96288.00
2018-09-10T00:34:41.739Z,96288.00
2018-09-10T00:35:13.858Z,96285.00
2018-09-10T00:35:45.985Z,96287.00
2018-09-10T00:36:18.143Z,96286.00
2018-09-10T00:36:50.462Z,96288.00
2018-09-10T00:37:22.739Z,96288.00
2018-09-10T00:37:55.025Z,96288.00
2018-09-10T00:38:27.126Z,96288.00
2018-09-10T00:38:59.294Z,96287.00
2018-09-10T00:39:31.405Z,96286.00
2018-09-10T00:40:03.596Z,96286.00
2018-09-10T00:40:35.714Z,96286.00
2018-09-10T00:41:07.797Z,96288.00
2018-09-10T00:41:39.947Z,96289.00
2018-09-10T00:42:12.221Z,96292.00
2018-09-10T00:42:44.433Z,96287.00
2018-09-10T00:43:16.579Z,96285.00
2018-09-10T00:43:48.739Z,96285.00
2018-09-10T00:44:20.854Z,96287.00
2018-09-10T00:44:53.008Z,96287.00
2018-09-10T00:45:25.139Z,96291.00
2018-09-10T00:45:57.226Z,96284.00
2018-09-10T00:46:29.563Z,96285.00
2018-09-10T00:47:01.742Z,96285.00
2018-09-10T00:47:33.893Z,96285.00
2018-09-10T00:48:06.118Z,96283.00
2018-09-10T00:48:38.305Z,96284.00
2018-09-10T00:49:10.379Z,96287.00
2018-09-10T00:49:42.482Z,96282.00
2018-09-10T00:50:14.733Z,96280.00
2018-09-10T00:50:46.870Z,96283.00
2018-09-10T00:51:18.965Z,96278.00
2018-09-10T00:51:51.203Z,96283.00
2018-09-10T00:52:23.460Z,96279.00
2018-09-10T00:52:55.657Z,96284.00
2018-09-10T00:53:28.138Z,96286.00
2018-09-10T00:54:00.300Z,96283.00
2018-09-10T00:54:32.718Z,96281.00
2018-09-10T00:55:04.842Z,96283.00
2018-09-10T00:55:36.975Z,96285.00
2018-09-10T00:56:09.249Z,96285.00
2018-09-10T00:56:41.503Z,96283.00
2018-09-10T00:57:13.762Z,96280.00
2018-09-10T00:57:46.012Z,96283.00
2018-09-10T00:58:18.139Z,96285.00
2018-09-10T00:58:50.528Z,96287.00
2018-09-10T00:59:22.621Z,96281.00
2018-09-10T00:59:54.874Z,96282.00
2018-09-10T01:00:26.969Z,96282.00
2018-09-10T01:00:59.242Z,96283.00
2018-09-10T01:01:31.332Z,96283.00
2018-09-10T01:02:03.601Z,96281.00
2018-09-10T01:02:35.709Z,96285.00
2018-09-10T01:03:07.827Z,96282.00
2018-09-10T01:03:39.949Z,96281.00
2018-09-10T01:04:12.125Z,96280.00
2018-09-10T01:04:44.536Z,96280.00
2018-09-10T01:05:16.782Z,96281.00
2018-09-10T01:05:48.935Z,96279.00
2018-09-10T01:06:21.106Z,96280.00
2018-09-10T01:06:53.225Z,96278.00
2018-09-10T01:07:25.352Z,96278.00
2018-09-10T01:07:57.456Z,96279.00
2018-09-10T01:08:29.818Z,96282.00
2018-09-10T01:09:01.941Z,96278.00
2018-09-10T01:09:34.132Z,96280.00
2018-09-10T01:10:06.281Z,96282.00
2018-09-10T01:10:38.353Z,96281.00
2018-09-10T01:11:10.487Z,96278.00
2018-09-10T01:11:42.742Z,96279.00
2018-09-10T01:12:14.856Z,96279.00
2018-09-10T01:12:47.114Z,96278.00
2018-09-10T01:13:19.210Z,96277.00
2018-09-10T01:13:51.397Z,96277.00
2018-09-10T01:14:23.680Z,96279.00
2018-09-10T01:14:55.974Z,96276.00
2018-09-10T01:15:28.103Z,96277.00
2018-09-10T01:16:00.242Z,96273.00
2018-09-10T01:16:32.335Z,96275.00
2018-09-10T01:17:04.516Z,96276.00
2018-09-10T01:17:36.672Z,96276.00
2018-09-10T01:18:08.943Z,96275.00
2018-09-10T01:18:41.183Z,96279.00
2018-09-10T01:19:13.351Z,96280.00
2018-09-10T01:19:45.595Z,96278.00
2018-09-10T01:20:17.682Z,96280.00
2018-09-10T01:20:50.004Z,96278.00
2018-09-10T01:21:22.262Z,96278.00
2018-09-10T01:21:54.453Z,96280.00
2018-09-10T01:22:26.741Z,96281.00
2018-09-10T01:22:59.031Z,96283.00
2018-09-10T01:23:31.289Z,96284.00
2018-09-10T01:24:03.504Z,96283.00
2018-09-10T01:24:35.593Z,96285.00
2018-09-10T01:25:07.822Z,96284.00
2018-09-10T01:25:40.079Z,96288.00
2018-09-10T01:26:12.401Z,96286.00
2018-09-10T01:26:44.725Z,96285.00
2018-09-10T01:27:16.821Z,96286.00
2018-09-10T01:27:49.102Z,96283.00
2018-09-10T01:28:21.241Z,96285.00
2018-09-10T01:28:53.398Z,96282.00
2018-09-10T01:29:25.502Z,96284.00
2018-09-10T01:29:57.667Z,96285.00
2018-09-10T01:30:29.817Z,96281.00
2018-09-10T01:31:01.933Z,96282.00
2018-09-10T01:31:34.034Z,96283.00
2018-09-10T01:32:06.201Z,96285.00
2018-09-10T01:32:38.321Z,96285.00
2018-09-10T01:33:10.402Z,96282.00
2018-09-10T01:33:42.545Z,96289.00
2018-09-10T01:34:14.642Z,96289.00
2018-09-10T01:34:47.033Z,96287.00
2018-09-10T01:35:19.148Z,96290.00
2018-09-10T01:35:51.302Z,96288.00
2018-09-10T01:36:23.497Z,96293.00
2018-09-10T01:36:55.605Z,96288.00
2018-09-10T01:37:27.709Z,96290.00
2018-09-10T01:38:00.096Z,96289.00
2018-09-10T01:38:32.250Z,96296.00
2018-09-10T01:39:04.410Z,96293.00
2018-09-10T01:39:36.510Z,96292.00
2018-09-10T01:40:08.743Z,96291.00
2018-09-10T01:40:40.885Z,96294.00
2018-09-10T01:41:13.005Z,96293.00
2018-09-10T01:41:45.158Z,96296.00
2018-09-10T01:42:17.286Z,96293.00
2018-09-10T01:42:49.380Z,96293.00
2018-09-10T01:43:21.530Z,96295.00
2018-09-10T01:43:53.654Z,96291.00
2018-09-10T01:44:25.796Z,96292.00
2018-09-10T01:44:58.023Z,96292.00
2018-09-10T01:45:30.195Z,96288.00
2018-09-10T01:46:02.314Z,96293.00
2018-09-10T01:46:34.424Z,96292.00
2018-09-10T01:47:06.645Z,96291.00
2018-09-10T01:47:38.718Z,96291.00
2018-09-10T01:48:10.870Z,96292.00
2018-09-10T01:48:42.949Z,96289.00
2018-09-10T01:49:15.154Z,96289.00
2018-09-10T01:49:47.258Z,96287.00
2018-09-10T01:50:19.548Z,96292.00
2018-09-10T01:50:51.741Z,96290.00
2018-09-10T01:51:23.877Z,96287.00
2018-09-10T01:51:55.971Z,96289.00
2018-09-10T01:52:28.249Z,96290.00
2018-09-10T01:53:00.544Z,96286.00
2018-09-10T01:53:32.709Z,96289.00
2018-09-10T01:54:04.833Z,96291.00
2018-09-10T01:54:37.034Z,96292.00
2018-09-10T01:55:09.120Z,96290.00
2018-09-10T01:55:41.214Z,96287.00
2018-09-10T01:56:13.460Z,96288.00
2018-09-10T01:56:45.721Z,96285.00
2018-09-10T01:57:17.945Z,96287.00
2018-09-10T01:57:50.403Z,96282.00
2018-09-10T01:58:22.560Z,96286.00
2018-09-10T01:58:54.647Z,96284.00
2018-09-10T01:59:26.762Z,96281.00
2018-09-10T01:59:58.874Z,96285.00
2018-09-10T02:00:30.990Z,96283.00
2018-09-10T02:01:03.105Z,96284.00
2018-09-10T02:01:35.284Z,96291.00
2018-09-10T02:02:07.430Z,96288.00
2018-09-10T02:02:39.663Z,96283.00
2018-09-10T02:03:11.866Z,96285.00
2018-09-10T02:03:44.079Z,96283.00
2018-09-10T02:04:16.317Z,96285.00
2018-09-10T02:04:48.444Z,96286.00
2018-09-10T02:05:20.661Z,96286.00
2018-09-10T02:05:52.827Z,96285.00
2018-09-10T02:06:24.962Z,96282.00
2018-09-10T02:06:57.103Z,96288.00
2018-09-10T02:07:29.230Z,96288.00
2018-09-10T02:08:01.326Z,96288.00
2018-09-10T02:08:33.734Z,96287.00
2018-09-10T02:09:06.047Z,96289.00
2018-09-10T02:09:38.317Z,96281.00
2018-09-10T02:10:10.520Z,96285.00
2018-09-10T02:10:42.677Z,96281.00
2018-09-10T02:11:14.790Z,96281.00
2018-09-10T02:11:46.915Z,96282.00
2018-09-10T02:12:19.029Z,96283.00
2018-09-10T02:12:51.300Z,96280.00
2018-09-10T02:13:23.506Z,96281.00
2018-09-10T02:13:55.770Z,96277.00
2018-09-10T02:14:27.877Z,96275.00
2018-09-10T02:14:59.976Z,96276.00
2018-09-10T02:15:32.119Z,96274.00
2018-09-10T02:16:04.281Z,96273.00
2018-09-10T02:16:36.394Z,96272.00
2018-09-10T02:17:08.642Z,96272.00
2018-09-10T02:17:41.134Z,96273.00
2018-09-10T02:18:13.217Z,96274.00
2018-09-10T02:18:45.386Z,96272.00
2018-09-10T02:19:17.477Z,96268.00
2018-09-10T02:19:49.743Z,96274.00
2018-09-10T02:20:22.078Z,96272.00
2018-09-10T02:20:54.248Z,96272.00
2018-09-10T02:21:26.370Z,96273.00
2018-09-10T02:21:58.567Z,96268.00
2018-09-10T02:22:30.869Z,96267.00
2018-09-10T02:23:03.247Z,96267.00
2018-09-10T02:23:35.743Z,96266.00
2018-09-10T02:24:07.847Z,96263.00
2018-09-10T02:24:40.027Z,96267.00
2018-09-10T02:25:12.103Z,96266.00
2018-09-10T02:25:44.411Z,96263.00
2018-09-10T02:26:16.519Z,96262.00
2018-09-10T02:26:48.746Z,96260.00
2018-09-10T02:27:20.902Z,96259.00
2018-09-10T02:27:53.179Z,96261.00
2018-09-10T02:28:25.276Z,96261.00
2018-09-10T02:28:57.401Z,96261.00
2018-09-10T02:29:29.562Z,96261.00
2018-09-10T02:30:01.694Z,96264.00
2018-09-10T02:30:33.865Z,96264.00
2018-09-10T02:31:06.090Z,96258.00
2018-09-10T02:31:38.263Z,96257.00
2018-09-10T02:32:10.343Z,96259.00
2018-09-10T02:32:42.501Z,96255.00
2018-09-10T02:33:14.654Z,96260.00
2018-09-10T02:33:46.801Z,96263.00
2018-09-10T02:34:19.112Z,96260.00
2018-09-10T02:34:51.250Z,96259.00
2018-09-10T02:35:23.369Z,96258.00
2018-09-10T02:35:55.846Z,96256.00
2018-09-10T02:36:27.989Z,96258.00
2018-09-10T02:37:00.113Z,96259.00
2018-09-10T02:37:32.224Z,96260.00
2018-09-10T02:38:04.357Z,96259.00
2018-09-10T02:38:36.547Z,96260.00
2018-09-10T02:39:08.601Z,96260.00
2018-09-10T02:39:40.824Z,96262.00
2018-09-10T02:40:13.029Z,96264.00
2018-09-10T02:40:45.145Z,96265.00
2018-09-10T02:41:17.310Z,96260.00
2018-09-10T02:41:49.571Z,96263.00
2018-09-10T02:42:21.681Z,96263.00
2018-09-10T02:42:53.835Z,96266.00
2018-09-10T02:43:25.993Z,96265.00
2018-09-10T02:43:58.125Z,96267.00
2018-09-10T02:44:30.273Z,96271.00
2018-09-10T02:45:02.465Z,96266.00
2018-09-10T02:45:34.689Z,96270.00
2018-09-10T02:46:06.830Z,96270.00
2018-09-10T02:46:39.018Z,96269.00
2018-09-10T02:47:11.123Z,96267.00
2018-09-10T02:47:43.258Z,96266.00
2018-09-10T02:48:15.368Z,96268.00
2018-09-10T02:48:47.457Z,96267.00
2018-09-10T02:49:19.589Z,96269.00
2018-09-10T02:49:51.745Z,96265.00
2018-09-10T02:50:23.897Z,96274.00
2018-09-10T02:50:56.043Z,96265.00
2018-09-10T02:51:28.158Z,96269.00
2018-09-10T02:52:00.507Z,96266.00
2018-09-10T02:52:32.631Z,96263.00
2018-09-10T02:53:04.886Z,96267.00
2018-09-10T02:53:36.994Z,96265.00
2018-09-10T02:54:09.261Z,96265.00
2018-09-10T02:54:41.407Z,96262.00
2018-09-10T02:55:13.621Z,96267.00
2018-09-10T02:55:45.692Z,96269.00
2018-09-10T02:56:17.791Z,96264.00
2018-09-10T02:56:50.082Z,96266.00
2018-09-10T02:57:22.174Z,96264.00
2018-09-10T02:57:54.291Z,96264.00
2018-09-10T02:58:26.426Z,96263.00
2018-09-10T02:58:58.557Z,96270.00
2018-09-10T02:59:30.705Z,96269.00
2018-09-10T03:00:02.820Z,96267.00
2018-09-10T03:00:34.951Z,96268.00
2018-09-10T03:01:07.326Z,96265.00
2018-09-10T03:01:39.427Z,96266.00
2018-09-10T03:02:11.566Z,96264.00
2018-09-10T03:02:43.675Z,96273.00
2018-09-10T03:03:15.767Z,96266.00
2018-09-10T03:03:47.862Z,96266.00
2018-09-10T03:04:20.014Z,96267.00
2018-09-10T03:04:52.284Z,96266.00
2018-09-10T03:05:24.459Z,96268.00
2018-09-10T03:05:56.549Z,96268.00
2018-09-10T03:06:28.702Z,96270.00
2018-09-10T03:07:00.887Z,96263.00
2018-09-10T03:07:32.969Z,96264.00
2018-09-10T03:08:05.193Z,96263.00
2018-09-10T03:08:37.354Z,96269.00
2018-09-10T03:09:09.466Z,96265.00
2018-09-10T03:09:41.617Z,96263.00
2018-09-10T03:10:13.738Z,96261.00
2018-09-10T03:10:45.873Z,96260.00
2018-09-10T03:11:17.995Z,96264.00
2018-09-10T03:11:50.142Z,96262.00
2018-09-10T03:12:22.426Z,96264.00
2018-09-10T03:12:54.522Z,96266.00
2018-09-10T03:13:26.609Z,96264.00
2018-09-10T03:13:58.789Z,96260.00
2018-09-10T03:14:30.906Z,96264.00
2018-09-10T03:15:03.042Z,96258.00
2018-09-10T03:15:35.190Z,96261.00
2018-09-10T03:16:07.357Z,96265.00
2018-09-10T03:16:39.590Z,96265.00
2018-09-10T03:17:11.713Z,96268.00
2018-09-10T03:17:43.885Z,96265.00
2018-09-10T03:18:16.052Z,96261.00
2018-09-10T03:18:48.185Z,96262.00
2018-09-10T03:19:20.302Z,96263.00
2018-09-10T03:19:52.436Z,96264.00
2018-09-10T03:20:24.555Z,96264.00
2018-09-10T03:20:56.786Z,96262.00
2018-09-10T03:21:28.905Z,96264.00
2018-09-10T03:22:01.036Z,96255.00
2018-09-10T03:22:33.180Z,96253.00
2018-09-10T03:23:05.406Z,96256.00
2018-09-10T03:23:37.590Z,96261.00
2018-09-10T03:24:09.752Z,96258.00
2018-09-10T03:24:41.786Z,96258.00
2018-09-10T03:25:13.926Z,96259.00
2018-09-10T03:25:46.201Z,96257.00
2018-09-10T03:26:18.296Z,96257.00
2018-09-10T03:26:50.576Z,96257.00
2018-09-10T03:27:22.681Z,96258.00
2018-09-10T03:27:54.902Z,96254.00
2018-09-10T03:28:27.073Z,96257.00
2018-09-10T03:28:59.404Z,96255.00
2018-09-10T03:29:31.561Z,96254.00
2018-09-10T03:30:03.661Z,96259.00
2018-09-10T03:30:35.755Z,96260.00
2018-09-10T03:31:08.015Z,96256.00
2018-09-10T03:31:40.146Z,96257.00
2018-09-10T03:32:12.262Z,96256.00
2018-09-10T03:32:44.368Z,96254.00
2018-09-10T03:33:16.634Z,96258.00
2018-09-10T03:33:48.723Z,96255.00
2018-09-10T03:34:20.814Z,96257.00
2018-09-10T03:34:52.915Z,96257.00
2018-09-10T03:35:25.014Z,96255.00
2018-09-10T03:35:57.136Z,96258.00
2018-09-10T03:36:29.364Z,96261.00
2018-09-10T03:37:01.494Z,96257.00
2018-09-10T03:37:33.668Z,96257.00
2018-09-10T03:38:05.760Z,96259.00
2018-09-10T03:38:37.894Z,96257.00
2018-09-10T03:39:10.068Z,96257.00
2018-09-10T03:39:42.183Z,96254.00
2018-09-10T03:40:14.261Z,96257.00
2018-09-10T03:40:46.408Z,96253.00
2018-09-10T03:41:18.523Z,96250.00
2018-09-10T03:41:50.651Z,96258.00
2018-09-10T03:42:22.778Z,96252.00
2018-09-10T03:42:54.926Z,96254.00
2018-09-10T03:43:27.110Z,96255.00
2018-09-10T03:43:59.336Z,96252.00
2018-09-10T03:44:31.500Z,96253.00
2018-09-10T03:45:03.607Z,96257.00
2018-09-10T03:45:35.773Z,96254.00
2018-09-10T03:46:07.921Z,96255.00
2018-09-10T03:46:40.033Z,96257.00
2018-09-10T03:47:12.201Z,96257.00
2018-09-10T03:47:44.328Z,96257.00
2018-09-10T03:48:16.428Z,96255.00
2018-09-10T03:48:48.538Z,96263.00
2018-09-10T03:49:20.859Z,96259.00
2018-09-10T03:49:52.951Z,96258.00
2018-09-10T03:50:25.078Z,96257.00
2018-09-10T03:50:57.335Z,96258.00
2018-09-10T03:51:29.478Z,96257.00
2018-09-10T03:52:01.628Z,96257.00
2018-09-10T03:52:33.914Z,96254.00
2018-09-10T03:53:05.981Z,96256.00
2018-09-10T03:53:38.090Z,96257.00
2018-09-10T03:54:10.453Z,96259.00
2018-09-10T03:54:42.695Z,96257.00
2018-09-10T03:55:14.816Z,96256.00
2018-09-10T03:55:46.899Z,96255.00
2018-09-10T03:56:18.999Z,96261.00
2018-09-10T03:56:51.160Z,96259.00
2018-09-10T03:57:23.331Z,96264.00
2018-09-10T03:57:55.470Z,96264.00
2018-09-10T03:58:27.591Z,96266.00
2018-09-10T03:58:59.729Z,96263.00
2018-09-10T03:59:31.985Z,96263.00
2018-09-10T04:00:04.239Z,96263.00
2018-09-10T04:00:36.334Z,96265.00
2018-09-10T04:01:08.451Z,96271.00
2018-09-10T04:01:40.645Z,96264.00
2018-09-10T04:02:12.766Z,96266.00
2018-09-10T04:02:44.953Z,96267.00
2018-09-10T04:03:17.071Z,96268.00
2018-09-10T04:03:49.223Z,96271.00
2018-09-10T04:04:21.678Z,96274.00
2018-09-10T04:04:53.762Z,96274.00
2018-09-10T04:05:25.911Z,96270.00
2018-09-10T04:05:58.002Z,96272.00
2018-09-10T04:06:30.290Z,96270.00
2018-09-10T04:07:02.367Z,96269.00
2018-09-10T04:07:34.502Z,96276.00
2018-09-10T04:08:06.585Z,96270.00
2018-09-10T04:08:38.667Z,96274.00
2018-09-10T04:09:10.788Z,96273.00
2018-09-10T04:09:42.958Z,96274.00
2018-09-10T04:10:15.063Z,96269.00
2018-09-10T04:10:47.171Z,96273.00
2018-09-10T04:11:19.272Z,96268.00
2018-09-10T04:11:51.382Z,96271.00
2018-09-10T04:12:23.469Z,96271.00
2018-09-10T04:12:55.610Z,96276.00
2018-09-10T04:13:27.829Z,96274.00
2018-09-10T04:13:59.932Z,96274.00
2018-09-10T04:14:32.059Z,96274.00
2018-09-10T04:15:04.150Z,96274.00
2018-09-10T04:15:36.362Z,96275.00
2018-09-10T04:16:08.443Z,96271.00
2018-09-10T04:16:40.549Z,96278.00
2018-09-10T04:17:12.805Z,96274.00
2018-09-10T04:17:44.905Z,96271.00
2018-09-10T04:18:16.979Z,96275.00
2018-09-10T04:18:49.081Z,96274.00
2018-09-10T04:19:21.274Z,96275.00
2018-09-10T04:19:53.375Z,96270.00
2018-09-10T04:20:25.529Z,96273.00
2018-09-10T04:20:57.662Z,96271.00
2018-09-10T04:21:29.750Z,96273.00
2018-09-10T04:22:01.882Z,96276.00
2018-09-10T04:22:33.994Z,96274.00
2018-09-10T04:23:06.133Z,96275.00
2018-09-10T04:23:38.280Z,96278.00
2018-09-10T04:24:10.603Z,96274.00
2018-09-10T04:24:42.978Z,96272.00
2018-09-10T04:25:15.099Z,96274.00
2018-09-10T04:25:47.365Z,96278.00
2018-09-10T04:26:19.502Z,96279.00
2018-09-10T04:26:51.661Z,96284.00
2018-09-10T04:27:23.802Z,96283.00
2018-09-10T04:27:56.096Z,96286.00
2018-09-10T04:28:28.179Z,96284.00
2018-09-10T04:29:00.471Z,96289.00
2018-09-10T04:29:32.691Z,96286.00
2018-09-10T04:30:04.760Z,96290.00
2018-09-10T04:30:36.914Z,96289.00
2018-09-10T04:31:09.022Z,96288.00
2018-09-10T04:31:41.145Z,96293.00
2018-09-10T04:32:13.271Z,96294.00
2018-09-10T04:32:45.421Z,96290.00
2018-09-10T04:33:17.564Z,96297.00
2018-09-10T04:33:49.677Z,96298.00
2018-09-10T04:34:21.759Z,96295.00
2018-09-10T04:34:53.865Z,96295.00
2018-09-10T04:35:25.967Z,96292.00
2018-09-10T04:35:58.145Z,96294.00
2018-09-10T04:36:30.246Z,96295.00
2018-09-10T04:37:02.369Z,96294.00
2018-09-10T04:37:34.514Z,96297.00
2018-09-10T04:38:06.664Z,96299.00
2018-09-10T04:38:38.799Z,96298.00
2018-09-10T04:39:11.018Z,96301.00
2018-09-10T04:39:43.233Z,96299.00
2018-09-10T04:40:15.364Z,96300.00
2018-09-10T04:40:47.698Z,96300.00
2018-09-10T04:41:19.862Z,96299.00
2018-09-10T04:41:52.180Z,96300.00
2018-09-10T04:42:24.485Z,96297.00
2018-09-10T04:42:56.556Z,96300.00
2018-09-10T04:43:28.699Z,96302.00
2018-09-10T04:44:00.890Z,96300.00
2018-09-10T04:44:33.180Z,96304.00
2018-09-10T04:45:05.407Z,96304.00
2018-09-10T04:45:37.502Z,96307.00
2018-09-10T04:46:09.670Z,96309.00
2018-09-10T04:46:41.742Z,96310.00
2018-09-10T04:47:13.872Z,96306.00
2018-09-10T04:47:45.961Z,96307.00
2018-09-10T04:48:18.320Z,96310.00
2018-09-10T04:48:50.581Z,96306.00
2018-09-10T04:49:22.711Z,96308.00
2018-09-10T04:49:54.797Z,96309.00
2018-09-10T04:50:26.919Z,96310.00
2018-09-10T04:50:59.053Z,96308.00
2018-09-10T04:51:31.251Z,96311.00
2018-09-10T04:52:03.471Z,96306.00
2018-09-10T04:52:35.649Z,96310.00
2018-09-10T04:53:07.765Z,96314.00
2018-09-10T04:53:40.006Z,96311.00
2018-09-10T04:54:12.129Z,96313.00
2018-09-10T04:54:44.258Z,96318.00
2018-09-10T04:55:16.401Z,96316.00
2018-09-10T04:55:48.697Z,96319.00
2018-09-10T04:56:20.778Z,96321.00
2018-09-10T04:56:52.957Z,96320.00
2018-09-10T04:57:25.146Z,96319.00
2018-09-10T04:57:57.259Z,96322.00
2018-09-10T04:58:29.479Z,96325.00
2018-09-10T04:59:01.614Z,96322.00
2018-09-10T04:59:33.738Z,96321.00
2018-09-10T05:00:05.892Z,96324.00
2018-09-10T05:00:37.980Z,96324.00
2018-09-10T05:01:10.323Z,96323.00
2018-09-10T05:01:42.465Z,96322.00
2018-09-10T05:02:14.869Z,96323.00
2018-09-10T05:02:46.942Z,96325.00
2018-09-10T05:03:19.061Z,96323.00
2018-09-10T05:03:51.148Z,96320.00
2018-09-10T05:04:23.287Z,96321.00
2018-09-10T05:04:55.376Z,96326.00
2018-09-10T05:05:27.690Z,96323.00
2018-09-10T05:05:59.916Z,96319.00
2018-09-10T05:06:32.057Z,96321.00
2018-09-10T05:07:04.178Z,96322.00
2018-09-10T05:07:36.309Z,96327.00
2018-09-10T05:08:08.402Z,96327.00
2018-09-10T05:08:40.547Z,96331.00
2018-09-10T05:09:12.743Z,96327.00
2018-09-10T05:09:44.926Z,96327.00
2018-09-10T05:10:17.021Z,96327.00
2018-09-10T05:10:49.184Z,96333.00
2018-09-10T05:11:21.385Z,96336.00
2018-09-10T05:11:53.535Z,96330.00
2018-09-10T05:12:25.622Z,96331.00
2018-09-10T05:12:57.753Z,96335.00
2018-09-10T05:13:29.870Z,96335.00
2018-09-10T05:14:02.092Z,96332.00
2018-09-10T05:14:34.242Z,96333.00
2018-09-10T05:15:06.417Z,96336.00
2018-09-10T05:15:38.711Z,96333.00
2018-09-10T05:16:10.829Z,96337.00
2018-09-10T05:16:42.983Z,96334.00
2018-09-10T05:17:15.136Z,96338.00
2018-09-10T05:17:47.408Z,96336.00
2018-09-10T05:18:19.525Z,96339.00
2018-09-10T05:18:51.696Z,96342.00
2018-09-10T05:19:23.865Z,96340.00
2018-09-10T05:19:55.966Z,96335.00
2018-09-10T05:20:28.095Z,96336.00
2018-09-10T05:21:00.465Z,96337.00
2018-09-10T05:21:32.578Z,96334.00
2018-09-10T05:22:04.774Z,96339.00
2018-09-10T05:22:37.062Z,96338.00
2018-09-10T05:23:09.296Z,96337.00
2018-09-10T05:23:41.506Z,96334.00
2018-09-10T05:24:13.644Z,96336.00
2018-09-10T05:24:45.799Z,96338.00
2018-09-10T05:25:17.958Z,96340.00
2018-09-10T05:25:50.052Z,96336.00
2018-09-10T05:26:22.312Z,96338.00
2018-09-10T05:26:54.418Z,96340.00
2018-09-10T05:27:26.523Z,96337.00
2018-09-10T05:27:58.682Z,96340.00
2018-09-10T05:28:30.798Z,96336.00
2018-09-10T05:29:03.013Z,96340.00
2018-09-10T05:29:35.110Z,96340.00
2018-09-10T05:30:07.233Z,96342.00
2018-09-10T05:30:39.505Z,96342.00
2018-09-10T05:31:11.785Z,96346.00
2018-09-10T05:31:43.940Z,96348.00
2018-09-10T05:32:16.046Z,96350.00
2018-09-10T05:32:48.215Z,96348.00
2018-09-10T05:33:20.583Z,96358.00
2018-09-10T05:33:52.857Z,96357.00
2018-09-10T05:34:25.030Z,96355.00
2018-09-10T05:34:57.104Z,96359.00
2018-09-10T05:35:29.243Z,96368.00
2018-09-10T05:36:01.350Z,96362.00
2018-09-10T05:36:33.469Z,96370.00
2018-09-10T05:37:05.805Z,96366.00
2018-09-10T05:37:38.059Z,96372.00
2018-09-10T05:38:10.193Z,96371.00
2018-09-10T05:38:42.329Z,96371.00
2018-09-10T05:39:14.437Z,96372.00
2018-09-10T05:39:46.536Z,96369.00
2018-09-10T05:40:18.661Z,96369.00
2018-09-10T05:40:50.802Z,96371.00
2018-09-10T05:41:22.945Z,96368.00
2018-09-10T05:41:55.187Z,96360.00
2018-09-10T05:42:27.290Z,96364.00
2018-09-10T05:42:59.403Z,96365.00
2018-09-10T05:43:31.686Z,96362.00
2018-09-10T05:44:03.930Z,96369.00
2018-09-10T05:44:36.037Z,96367.00
2018-09-10T05:45:08.151Z,96377.00
2018-09-10T05:45:40.268Z,96374.00
2018-09-10T05:46:12.409Z,96367.00
2018-09-10T05:46:44.564Z,96368.00
2018-09-10T05:47:16.733Z,96374.00
2018-09-10T05:47:48.820Z,96372.00
2018-09-10T05:48:20.911Z,96372.00
2018-09-10T05:48:53.237Z,96376.00
2018-09-10T05:49:25.390Z,96372.00
2018-09-10T05:49:57.515Z,96377.00
2018-09-10T05:50:29.684Z,96375.00
2018-09-10T05:51:02.009Z,96374.00
2018-09-10T05:51:34.138Z,96371.00
2018-09-10T05:52:06.241Z,96380.00
2018-09-10T05:52:38.412Z,96377.00
2018-09-10T05:53:10.634Z,96379.00
2018-09-10T05:53:42.705Z,96382.00
2018-09-10T05:54:15.068Z,96380.00
2018-09-10T05:54:47.319Z,96380.00
2018-09-10T05:55:19.422Z,96385.00
2018-09-10T05:55:51.635Z,96380.00
2018-09-10T05:56:23.764Z,96388.00
2018-09-10T05:56:55.971Z,96387.00
2018-09-10T05:57:28.319Z,96385.00
2018-09-10T05:58:00.419Z,96387.00
2018-09-10T05:58:32.498Z,96381.00
2018-09-10T05:59:04.689Z,96382.00
2018-09-10T05:59:36.949Z,96387.00
2018-09-10T06:00:09.219Z,96386.00
2018-09-10T06:00:41.362Z,96385.00
2018-09-10T06:01:13.451Z,96384.00
2018-09-10T06:01:45.657Z,96384.00
2018-09-10T06:02:17.790Z,96389.00
2018-09-10T06:02:50.013Z,96388.00
2018-09-10T06:03:22.234Z,96383.00
2018-09-10T06:03:54.461Z,96384.00
2018-09-10T06:04:26.600Z,96389.00
2018-09-10T06:04:58.689Z,96384.00
2018-09-10T06:05:30.797Z,96386.00
2018-09-10T06:06:02.936Z,96387.00
2018-09-10T06:06:35.069Z,96380.00
2018-09-10T06:07:07.317Z,96382.00
2018-09-10T06:07:39.424Z,96387.00
2018-09-10T06:08:11.571Z,96381.00
2018-09-10T06:08:43.904Z,96381.00
2018-09-10T06:09:15.975Z,96385.00
2018-09-10T06:09:48.148Z,96384.00
2018-09-10T06:10:20.272Z,96386.00
2018-09-10T06:10:52.436Z,96384.00
2018-09-10T06:11:24.682Z,96383.00
2018-09-10T06:11:56.785Z,96387.00
2018-09-10T06:12:28.905Z,96388.00
2018-09-10T06:13:01.057Z,96386.00
2018-09-10T06:13:33.175Z,96389.00
2018-09-10T06:14:05.351Z,96388.00
2018-09-10T06:14:37.525Z,96391.00
2018-09-10T06:15:09.622Z,96391.00
2018-09-10T06:15:41.741Z,96392.00
2018-09-10T06:16:13.875Z,96391.00
2018-09-10T06:16:46.219Z,96391.00
2018-09-10T06:17:18.329Z,96391.00
2018-09-10T06:17:50.434Z,96393.00